Time;durP1;ratioP1;P1;durP2;ratioP2;P2;SDS_P1;SDS_P2;PMS_P1;PMS_P2;Temp;Humidity;BMP_temperature;BMP_pressure;BME280_temperature;BME280_humidity;BME280_pressure;Samples;Min_cycle;Max_cycle;Signal;HPM_P1;HPM_P2
2023/05/07 00:00:15;;;;;;;5.05;2.53;;;;;;;19.16;86.82;152796.59;5044143;28;20049;-86
2023/05/07 00:02:40;;;;;;;5.22;2.53;;;;;;;19.17;87.13;152799.13;5044265;28;20095;-85
2023/05/07 00:05:08;;;;;;;5.45;2.28;;;;;;;19.27;86.78;152824.28;5041613;28;20025;-86
2023/05/07 00:07:34;;;;;;;3.55;2.38;;;;;;;19.28;86.44;152825.53;5025014;28;20104;-83
2023/05/07 00:10:00;;;;;;;4.80;2.88;;;;;;;18.99;88.09;152755.09;5041325;28;20172;-83
2023/05/07 00:12:25;;;;;;;6.20;2.42;;;;;;;19.12;87.56;152785.31;5042064;28;20041;-82
2023/05/07 00:14:51;;;;;;;3.15;2.42;;;;;;;19.27;86.66;152823.00;5040773;28;20031;-82
2023/05/07 00:17:16;;;;;;;4.45;2.58;;;;;;;19.31;86.82;152833.06;5031361;28;20024;-81
2023/05/07 00:19:41;;;;;;;6.57;2.58;;;;;;;19.21;88.88;152807.94;5020140;28;20101;-81
2023/05/07 00:22:08;;;;;;;7.72;3.08;;;;;;;19.27;87.87;152823.00;5020377;28;20038;-84
2023/05/07 00:24:33;;;;;;;5.15;2.45;;;;;;;19.28;87.44;152826.78;5023768;28;20030;-83
2023/05/07 00:27:00;;;;;;;4.20;2.78;;;;;;;19.16;88.52;152795.38;5031763;28;20064;-82
2023/05/07 00:29:25;;;;;;;4.00;2.70;;;;;;;18.80;91.24;152707.34;5035878;28;20033;-81
2023/05/07 00:31:54;;;;;;;4.32;2.53;;;;;;;18.82;90.94;152711.16;5033212;28;20042;-82
2023/05/07 00:34:20;;;;;;;4.97;2.92;;;;;;;18.75;91.46;152693.53;5019367;28;20120;-84
2023/05/07 00:36:46;;;;;;;9.40;2.83;;;;;;;18.80;90.48;152707.34;5019214;28;20117;-81
2023/05/07 00:39:12;;;;;;;6.88;2.60;;;;;;;18.85;88.85;152718.69;5019712;28;20068;-83
2023/05/07 00:41:37;;;;;;;5.53;2.28;;;;;;;18.94;87.71;152742.56;5019284;28;20053;-86
2023/05/07 00:44:03;;;;;;;4.32;2.33;;;;;;;18.94;87.83;152741.28;5019260;28;20037;-82
2023/05/07 00:46:30;;;;;;;3.33;2.20;;;;;;;18.82;88.77;152712.41;5019385;28;20021;-83
2023/05/07 00:49:00;;;;;;;2.72;1.90;;;;;;;18.68;88.78;152677.22;5027531;28;20042;-85
2023/05/07 00:51:27;;;;;;;3.90;2.58;;;;;;;18.67;88.23;152673.41;5018180;28;20061;-82
2023/05/07 00:53:53;;;;;;;4.68;2.65;;;;;;;18.43;90.46;152614.31;5016521;28;20044;-86
2023/05/07 00:56:23;;;;;;;5.35;2.17;;;;;;;18.55;88.90;152645.81;5017533;28;20113;-83
2023/05/07 00:58:49;;;;;;;6.00;2.10;;;;;;;18.44;90.02;152618.09;5016822;28;20040;-83
2023/05/07 01:01:17;;;;;;;3.25;1.92;;;;;;;18.60;88.18;152657.09;5015914;28;20034;-84
2023/05/07 01:03:43;;;;;;;5.05;2.40;;;;;;;18.64;87.36;152667.16;5017402;28;20037;-82
2023/05/07 01:06:12;;;;;;;5.00;2.50;;;;;;;18.21;89.84;152560.28;5017138;28;20042;-82
2023/05/07 01:08:39;;;;;;;4.57;2.75;;;;;;;18.13;89.46;152538.94;5016778;28;20053;-85
2023/05/07 01:11:07;;;;;;;7.10;2.92;;;;;;;18.29;90.69;152579.16;5018927;28;20042;-87
2023/05/07 01:13:34;;;;;;;5.38;2.90;;;;;;;18.28;91.36;152577.88;5017633;28;20387;-83
2023/05/07 01:16:01;;;;;;;9.88;3.88;;;;;;;18.13;92.80;152538.94;5015055;28;20510;-85
2023/05/07 01:18:28;;;;;;;10.70;4.03;;;;;;;18.19;93.42;152554.03;5018388;28;20033;-82
2023/05/07 01:20:57;;;;;;;7.65;4.47;;;;;;;18.12;94.25;152536.44;5017464;28;20034;-84
2023/05/07 01:23:24;;;;;;;10.80;5.20;;;;;;;18.00;96.01;152508.78;5017779;28;20487;-85
2023/05/07 01:25:53;;;;;;;8.25;4.30;;;;;;;18.08;95.57;152528.91;4982227;28;1116594;-87
2023/05/07 01:28:20;;;;;;;10.32;4.75;;;;;;;17.99;96.99;152506.28;5020400;28;20026;-81
2023/05/07 01:31:01;;;;;;;7.63;4.30;;;;;;;17.67;100.00;152425.88;5012330;28;20498;-86
2023/05/07 01:33:31;;;;;;;4.65;3.40;;;;;;;17.61;100.00;152410.81;5012641;28;20037;-90
2023/05/07 01:36:00;;;;;;;9.02;2.90;;;;;;;17.58;99.24;152403.28;5013890;28;20045;-87
2023/05/07 01:38:27;;;;;;;4.45;2.70;;;;;;;17.71;96.87;152434.66;5012564;28;20079;-89
2023/05/07 01:40:53;;;;;;;6.85;3.00;;;;;;;17.65;97.29;152419.59;5014243;28;20033;-87
2023/05/07 01:43:19;;;;;;;6.50;3.53;;;;;;;17.50;99.66;152384.38;5017958;28;20029;-87
2023/05/07 01:45:45;;;;;;;9.38;3.50;;;;;;;17.38;100.00;152354.25;5016841;28;20072;-89
2023/05/07 01:48:12;;;;;;;12.48;4.18;;;;;;;17.27;100.00;152325.34;5015366;28;20057;-89
2023/05/07 01:50:39;;;;;;;6.72;4.47;;;;;;;17.51;100.00;152385.66;5012325;28;20430;-88
2023/05/07 01:53:04;;;;;;;10.13;4.63;;;;;;;17.58;100.00;152403.28;5012045;28;20119;-89
2023/05/07 01:55:30;;;;;;;9.07;5.00;;;;;;;17.37;100.00;152350.47;5013558;28;20126;-88
2023/05/07 01:57:56;;;;;;;10.93;5.35;;;;;;;17.38;100.00;152354.25;5012235;28;20464;-86
2023/05/07 02:00:21;;;;;;;8.70;5.20;;;;;;;17.50;100.00;152383.13;5013813;28;20099;-87
2023/05/07 02:02:47;;;;;;;8.65;5.50;;;;;;;17.12;100.00;152287.72;5020544;28;20033;-85
2023/05/07 02:05:35;;;;;;;12.27;6.93;;;;;;;16.87;100.00;152227.44;5019439;28;20050;-86
2023/05/07 02:08:06;;;;;;;11.13;8.43;;;;;;;16.60;100.00;152159.69;5014048;28;20030;-87
2023/05/07 02:10:32;;;;;;;17.20;9.63;;;;;;;16.52;100.00;152140.81;5014107;28;20049;-86
2023/05/07 02:12:59;;;;;;;16.20;10.32;;;;;;;16.49;100.00;152133.28;5013725;28;20587;-88
2023/05/07 02:15:25;;;;;;;16.77;10.32;;;;;;;16.49;100.00;152132.03;5015155;28;20034;-87
2023/05/07 02:18:00;;;;;;;18.35;10.15;;;;;;;16.44;100.00;152119.44;5013884;28;20042;-88
2023/05/07 02:20:26;;;;;;;15.35;10.43;;;;;;;16.39;100.00;152106.94;4996143;28;20495;-85
2023/05/07 02:22:51;;;;;;;13.02;8.35;;;;;;;16.42;100.00;152114.44;5012279;28;20120;-86
2023/05/07 02:25:17;;;;;;;13.15;7.43;;;;;;;16.42;100.00;152114.44;5011385;28;20391;-86
2023/05/07 02:27:42;;;;;;;12.35;6.50;;;;;;;16.43;100.00;152118.25;5011656;28;20049;-88
2023/05/07 02:30:08;;;;;;;13.35;6.18;;;;;;;16.75;100.00;152196.06;5012875;28;20049;-89
2023/05/07 02:32:34;;;;;;;9.63;5.90;;;;;;;17.02;100.00;152265.13;5014721;28;20034;-88
2023/05/07 02:35:00;;;;;;;6.55;4.72;;;;;;;17.02;100.00;152263.88;5011407;28;20041;-86
2023/05/07 02:37:25;;;;;;;8.18;4.65;;;;;;;16.85;100.00;152221.19;5011493;28;20064;-88
2023/05/07 02:39:51;;;;;;;7.25;4.50;;;;;;;16.61;100.00;152162.19;5011506;28;20124;-87
2023/05/07 02:42:17;;;;;;;6.60;5.25;;;;;;;16.59;100.00;152157.19;5012879;28;20041;-86
2023/05/07 02:44:42;;;;;;;13.35;4.45;;;;;;;16.70;100.00;152184.81;5013559;28;20034;-87
2023/05/07 02:47:09;;;;;;;7.68;5.18;;;;;;;16.75;100.00;152197.31;5016639;28;20061;-87
2023/05/07 02:49:36;;;;;;;7.40;4.45;;;;;;;16.71;100.00;152187.28;5015783;28;20058;-88
2023/05/07 02:52:02;;;;;;;8.07;5.07;;;;;;;16.68;100.00;152179.75;5015541;28;20034;-87
2023/05/07 02:54:28;;;;;;;7.10;4.68;;;;;;;16.71;100.00;152186.00;5015172;28;20048;-89
2023/05/07 02:56:53;;;;;;;8.38;4.65;;;;;;;16.89;100.00;152231.22;5014943;28;20045;-87
2023/05/07 02:59:19;;;;;;;10.30;4.72;;;;;;;16.93;100.00;152242.53;5016677;28;20030;-87
2023/05/07 03:01:45;;;;;;;7.38;4.68;;;;;;;16.88;100.00;152229.97;5016253;28;20061;-87
2023/05/07 03:04:11;;;;;;;7.47;5.20;;;;;;;17.01;100.00;152262.59;5014892;28;20034;-88
2023/05/07 03:06:36;;;;;;;9.50;5.07;;;;;;;16.88;100.00;152228.69;5015260;28;20084;-87
2023/05/07 03:09:02;;;;;;;7.45;4.38;;;;;;;16.89;100.00;152231.22;5017609;28;20022;-87
2023/05/07 03:11:28;;;;;;;7.85;4.97;;;;;;;16.88;100.00;152229.97;5014916;28;20042;-87
2023/05/07 03:13:54;;;;;;;9.15;5.28;;;;;;;16.85;100.00;152222.44;5014646;28;20121;-86
2023/05/07 03:16:20;;;;;;;7.13;5.57;;;;;;;16.97;100.00;152252.53;5014978;28;20038;-86
2023/05/07 03:18:46;;;;;;;9.10;4.82;;;;;;;16.93;100.00;152242.53;5016043;28;20036;-86
2023/05/07 03:21:11;;;;;;;8.63;5.25;;;;;;;16.96;100.00;152250.06;5016515;28;20424;-88
2023/05/07 03:23:37;;;;;;;12.95;5.75;;;;;;;16.96;100.00;152250.06;5035815;28;20036;-85
2023/05/07 03:26:02;;;;;;;13.07;5.40;;;;;;;16.95;100.00;152247.53;5030274;28;20471;-86
2023/05/07 03:28:28;;;;;;;10.63;5.50;;;;;;;16.93;100.00;152241.28;5014435;28;20045;-89
2023/05/07 03:30:58;;;;;;;7.57;5.15;;;;;;;17.10;100.00;152282.72;5014609;28;20030;-86
2023/05/07 03:33:24;;;;;;;7.93;5.47;;;;;;;16.91;100.00;152237.50;5015010;28;20037;-86
2023/05/07 03:35:50;;;;;;;8.75;4.97;;;;;;;16.99;100.00;152256.34;5016365;28;20061;-88
2023/05/07 03:38:20;;;;;;;7.30;5.00;;;;;;;17.05;100.00;152272.66;5014507;28;20108;-89
2023/05/07 03:40:46;;;;;;;9.85;5.38;;;;;;;17.07;100.00;152275.19;5014511;28;20077;-88
2023/05/07 03:43:11;;;;;;;12.50;5.45;;;;;;;17.03;100.00;152267.59;5014528;28;20037;-88
2023/05/07 03:45:40;;;;;;;11.35;5.28;;;;;;;16.94;100.00;152245.03;5015964;28;20042;-87
2023/05/07 03:48:10;;;;;;;11.05;5.63;;;;;;;16.95;100.00;152246.28;5016582;28;20501;-87
2023/05/07 03:50:37;;;;;;;11.48;5.57;;;;;;;16.96;100.00;152250.06;5016256;28;20439;-88
2023/05/07 03:53:03;;;;;;;8.73;5.47;;;;;;;17.10;100.00;152282.72;5017136;28;20096;-88
2023/05/07 03:55:31;;;;;;;7.40;5.40;;;;;;;17.03;100.00;152267.59;5014701;28;20041;-88
2023/05/07 03:57:59;;;;;;;10.55;5.85;;;;;;;16.98;100.00;152255.06;5014544;28;20049;-89
2023/05/07 04:00:26;;;;;;;11.23;6.47;;;;;;;16.89;100.00;152231.22;5014078;28;20053;-88
2023/05/07 04:02:52;;;;;;;8.70;6.10;;;;;;;16.83;100.00;152216.16;5015503;28;20041;-88
2023/05/07 04:05:24;;;;;;;10.32;6.70;;;;;;;16.68;100.00;152178.50;5013917;28;20037;-88
2023/05/07 04:07:55;;;;;;;10.60;6.20;;;;;;;16.68;100.00;152179.75;5015369;28;20063;-87
2023/05/07 04:10:28;;;;;;;10.48;6.22;;;;;;;16.81;100.00;152211.13;5022172;28;20101;-85
2023/05/07 04:12:56;;;;;;;10.13;6.80;;;;;;;16.74;100.00;152193.53;5013640;28;20040;-86
2023/05/07 04:15:24;;;;;;;9.07;6.45;;;;;;;16.65;100.00;152172.22;5013681;28;20034;-86
2023/05/07 04:17:49;;;;;;;10.68;6.50;;;;;;;16.65;100.00;152172.22;5014974;28;20030;-88
2023/05/07 04:20:18;;;;;;;10.43;6.63;;;;;;;16.72;100.00;152189.81;5014119;28;20376;-85
2023/05/07 04:22:48;;;;;;;12.05;7.15;;;;;;;16.47;100.00;152127.03;5013724;28;21207;-89
2023/05/07 04:25:13;;;;;;;15.25;8.13;;;;;;;16.43;100.00;152118.25;5013422;28;20042;-86
2023/05/07 04:27:39;;;;;;;11.38;7.70;;;;;;;16.44;100.00;152119.44;5013487;28;20070;-86
2023/05/07 04:30:06;;;;;;;13.63;7.95;;;;;;;16.53;100.00;152142.06;5014614;28;20088;-86
2023/05/07 04:32:37;;;;;;;12.52;8.40;;;;;;;16.58;100.00;152154.66;5013439;28;20037;-89
2023/05/07 04:35:03;;;;;;;18.00;8.50;;;;;;;16.37;100.00;152103.13;5013713;28;20093;-86
2023/05/07 04:37:29;;;;;;;15.25;8.95;;;;;;;16.27;100.00;152076.81;5013876;28;20120;-85
2023/05/07 04:39:54;;;;;;;13.23;8.40;;;;;;;16.25;100.00;152071.78;5020415;28;20161;-84
2023/05/07 04:42:22;;;;;;;17.65;8.98;;;;;;;16.28;100.00;152079.31;5021230;28;20065;-82
2023/05/07 04:44:52;;;;;;;12.10;8.98;;;;;;;16.40;100.00;152109.44;5015186;28;20029;-82
2023/05/07 04:47:18;;;;;;;14.10;9.70;;;;;;;16.50;100.00;152135.75;5014537;28;20054;-86
2023/05/07 04:49:44;;;;;;;15.52;9.68;;;;;;;16.59;100.00;152157.19;5012927;28;20030;-86
2023/05/07 04:52:11;;;;;;;18.73;10.02;;;;;;;16.47;100.00;152127.03;5013573;28;20128;-89
2023/05/07 04:54:39;;;;;;;12.50;9.95;;;;;;;16.53;100.00;152142.06;5013135;28;20044;-87
2023/05/07 04:57:06;;;;;;;22.02;10.75;;;;;;;16.57;100.00;152152.19;5017357;28;20482;-89
2023/05/07 04:59:32;;;;;;;19.60;10.55;;;;;;;16.63;100.00;152167.22;5016716;28;20053;-91
2023/05/07 05:01:58;;;;;;;15.48;10.40;;;;;;;16.74;100.00;152194.81;5012509;28;20029;-90
2023/05/07 05:04:24;;;;;;;18.08;10.55;;;;;;;16.77;100.00;152202.34;5016644;28;20042;-86
2023/05/07 05:06:50;;;;;;;14.50;10.15;;;;;;;16.89;100.00;152232.50;5015469;28;20084;-90
2023/05/07 05:09:16;;;;;;;14.85;9.48;;;;;;;17.01;100.00;152261.34;5013520;28;20471;-89
2023/05/07 05:11:42;;;;;;;16.50;10.55;;;;;;;17.09;100.00;152280.19;5014115;28;20049;-90
2023/05/07 05:14:07;;;;;;;15.15;10.82;;;;;;;17.07;100.00;152275.19;4998087;28;20474;-87
2023/05/07 05:16:35;;;;;;;14.68;10.88;;;;;;;17.20;100.00;152307.81;5015240;28;20049;-88
2023/05/07 05:19:02;;;;;;;15.23;11.55;;;;;;;17.25;100.00;152321.63;5015400;28;20038;-86
2023/05/07 05:21:29;;;;;;;15.15;10.88;;;;;;;17.37;100.00;152351.72;5016586;28;20029;-87
2023/05/07 05:24:00;;;;;;;16.33;12.05;;;;;;;17.47;100.00;152376.84;5022826;28;20503;-88
2023/05/07 05:26:26;;;;;;;17.58;11.68;;;;;;;17.65;100.00;152420.88;5026649;28;20110;-86
2023/05/07 05:28:53;;;;;;;17.65;12.27;;;;;;;17.77;100.00;152451.00;5024400;28;20371;-87
2023/05/07 05:31:22;;;;;;;25.40;12.73;;;;;;;17.93;100.00;152491.19;5022357;28;20041;-87
2023/05/07 05:33:50;;;;;;;17.85;13.13;;;;;;;17.99;100.00;152505.03;5025033;28;20105;-84
2023/05/07 05:36:17;;;;;;;17.33;12.07;;;;;;;17.97;100.00;152501.25;5021663;28;20428;-87
2023/05/07 05:38:46;;;;;;;18.92;13.13;;;;;;;18.06;100.00;152523.84;5024296;28;20034;-86
2023/05/07 05:41:14;;;;;;;18.13;12.68;;;;;;;18.23;100.00;152565.31;5028375;28;20045;-87
2023/05/07 05:43:41;;;;;;;19.80;12.02;;;;;;;18.54;100.00;152642.00;5020506;28;20042;-86
2023/05/07 05:46:08;;;;;;;19.02;12.93;;;;;;;18.68;100.00;152677.22;5021785;28;20452;-86
2023/05/07 05:48:35;;;;;;;24.75;13.82;;;;;;;18.87;100.00;152724.97;5020864;28;20137;-87
2023/05/07 05:51:05;;;;;;;23.33;13.15;;;;;;;19.17;100.00;152797.84;5021338;28;20034;-86
2023/05/07 05:53:31;;;;;;;18.85;13.90;;;;;;;19.37;100.00;152849.41;5018994;28;20034;-89
2023/05/07 05:55:59;;;;;;;23.27;14.80;;;;;;;19.54;100.00;152890.97;5016812;28;20431;-86
2023/05/07 05:58:26;;;;;;;23.00;15.52;;;;;;;19.92;96.49;152985.31;5021806;28;20049;-89
2023/05/07 06:00:58;;;;;;;29.05;16.50;;;;;;;20.30;94.58;153079.66;5018727;28;20553;-91
2023/05/07 06:03:27;;;;;;;26.27;16.88;;;;;;;20.12;94.31;153036.84;5018817;28;20042;-92
2023/05/07 06:05:56;;;;;;;27.85;16.38;;;;;;;20.70;92.29;153180.34;5016113;28;20117;-91
2023/05/07 06:08:22;;;;;;;22.35;16.60;;;;;;;20.81;89.96;153208.03;5018043;28;20034;-89
2023/05/07 06:10:50;;;;;;;26.48;17.27;;;;;;;20.32;93.74;153084.69;5015228;28;20137;-91
2023/05/07 06:13:16;;;;;;;27.00;17.30;;;;;;;20.66;91.26;153170.25;5016964;28;20387;-93
2023/05/07 06:15:46;;;;;;;32.28;18.33;;;;;;;20.53;92.37;153137.53;5020181;28;20048;-89
2023/05/07 06:18:13;;;;;;;29.67;18.20;;;;;;;20.82;90.97;153209.25;5016839;28;20090;-88
2023/05/07 06:20:39;;;;;;;23.85;16.65;;;;;;;21.33;87.77;153336.44;5016578;28;20068;-91
2023/05/07 06:23:14;;;;;;;28.45;18.02;;;;;;;21.21;85.10;153307.53;5016251;28;20464;-91
2023/05/07 06:25:49;;;;;;;32.08;17.48;;;;;;;22.07;79.57;153522.84;5016407;28;20034;-93
2023/05/07 06:28:14;;;;;;;28.33;16.27;;;;;;;22.22;78.63;153558.13;5015521;28;20105;-92
2023/05/07 06:30:42;;;;;;;39.08;16.13;;;;;;;22.64;74.86;153665.19;5016876;28;20088;-90
2023/05/07 06:33:08;;;;;;;24.27;16.48;;;;;;;22.39;76.66;153600.94;5016321;28;20030;-92
2023/05/07 06:35:33;;;;;;;25.38;16.63;;;;;;;22.93;74.45;153735.81;5017886;28;20037;-91
2023/05/07 06:38:00;;;;;;;33.50;17.27;;;;;;;23.48;71.26;153873.25;5020111;28;20110;-91
2023/05/07 06:40:27;;;;;;;26.15;15.05;;;;;;;24.46;67.52;154117.94;5022419;28;20041;-91
2023/05/07 06:42:55;;;;;;;32.50;17.17;;;;;;;24.31;65.54;154081.34;5023805;28;20044;-92
2023/05/07 06:45:27;;;;;;;22.80;15.45;;;;;;;24.93;63.10;154235.25;5016891;28;20096;-90
2023/05/07 06:47:54;;;;;;;22.55;14.77;;;;;;;25.52;60.82;154382.97;5020561;28;20069;-90
2023/05/07 06:50:21;;;;;;;22.27;16.13;;;;;;;25.97;56.15;154496.56;5017438;28;20038;-90
2023/05/07 06:52:48;;;;;;;24.02;16.27;;;;;;;25.49;58.41;154375.31;5016279;28;20093;-92
2023/05/07 06:55:13;;;;;;;24.10;16.15;;;;;;;25.61;59.86;154405.69;5016127;28;20072;-92
2023/05/07 06:57:39;;;;;;;26.63;17.27;;;;;;;25.23;59.10;154309.69;5016427;28;20038;-91
2023/05/07 07:00:08;;;;;;;22.10;16.15;;;;;;;25.60;59.27;154403.16;5015319;28;20497;-92
2023/05/07 07:02:41;;;;;;;22.02;16.52;;;;;;;25.42;60.28;154357.69;5018157;28;20041;-93
2023/05/07 07:05:08;;;;;;;25.10;15.40;;;;;;;27.32;53.52;154832.59;5014419;28;20038;-89
2023/05/07 07:07:34;;;;;;;23.70;17.88;;;;;;;26.25;54.43;154564.81;5016274;28;20076;-88
2023/05/07 07:10:00;;;;;;;24.30;16.90;;;;;;;26.25;55.11;154564.81;5023787;28;20026;-90
2023/05/07 07:12:34;;;;;;;25.60;17.02;;;;;;;25.46;57.83;154367.75;5024591;28;20243;-90
2023/05/07 07:15:00;;;;;;;27.17;16.83;;;;;;;25.78;57.25;154448.63;5015785;28;20065;-87
2023/05/07 07:17:26;;;;;;;22.23;16.42;;;;;;;26.68;52.99;154674.63;5014795;28;20083;-88
2023/05/07 07:19:54;;;;;;;26.48;16.60;;;;;;;26.20;54.83;154554.69;5029218;28;20010;-85
2023/05/07 07:22:20;;;;;;;19.70;14.93;;;;;;;26.73;53.06;154686.03;5020584;28;20042;-87
2023/05/07 07:24:46;;;;;;;19.35;14.30;;;;;;;26.67;52.62;154672.16;5016121;28;20383;-89
2023/05/07 07:27:14;;;;;;;23.65;15.32;;;;;;;26.49;52.67;154625.38;4995867;28;20137;-86
2023/05/07 07:29:40;;;;;;;21.65;13.60;;;;;;;27.03;52.02;154761.84;5011978;28;20366;-86
2023/05/07 07:32:06;;;;;;;23.70;13.48;;;;;;;26.99;52.20;154750.47;5017301;28;20088;-84
2023/05/07 07:34:32;;;;;;;16.42;12.85;;;;;;;28.19;46.78;155052.59;5019068;28;20082;-84
2023/05/07 07:37:05;;;;;;;19.92;13.02;;;;;;;29.23;43.67;155311.84;5020304;28;20080;-90
2023/05/07 07:39:32;;;;;;;18.13;13.48;;;;;;;28.78;44.47;155199.28;5035314;28;20041;-91
2023/05/07 07:42:11;;;;;;;16.63;11.00;;;;;;;28.52;45.73;155134.75;5033079;28;20425;-88
2023/05/07 07:44:39;;;;;;;19.90;13.80;;;;;;;27.87;47.70;154971.66;5023177;28;20025;-91
2023/05/07 07:47:09;;;;;;;17.17;11.65;;;;;;;29.10;45.11;155280.19;5022128;28;20168;-87
2023/05/07 07:49:35;;;;;;;22.60;12.85;;;;;;;28.99;44.15;155252.41;5030917;28;20136;-86
2023/05/07 07:52:04;;;;;;;22.35;13.52;;;;;;;27.54;48.46;154889.47;5028020;28;20026;-87
2023/05/07 07:54:31;;;;;;;19.02;13.68;;;;;;;27.71;48.07;154932.47;5024716;28;20110;-87
2023/05/07 07:57:01;;;;;;;21.05;14.02;;;;;;;27.31;49.20;154831.31;5030535;28;20039;-87
2023/05/07 07:59:29;;;;;;;;;;;;;;;27.13;50.65;154787.13;5037097;28;20037;-85
2023/05/07 08:01:56;;;;;;;15.55;12.35;;;;;;;27.99;47.90;155001.97;5037969;28;19913;-86
2023/05/07 08:04:23;;;;;;;18.33;11.98;;;;;;;28.62;45.73;155158.78;5035125;28;20044;-85
2023/05/07 08:06:49;;;;;;;15.20;11.35;;;;;;;28.65;44.71;155166.34;5023690;28;20029;-88
2023/05/07 08:09:14;;;;;;;19.92;10.82;;;;;;;28.62;44.56;155158.78;5033094;28;20061;-84
2023/05/07 08:11:41;;;;;;;17.35;10.10;;;;;;;28.14;44.00;155039.91;5034538;28;20423;-86
2023/05/07 08:14:06;;;;;;;16.60;10.40;;;;;;;29.10;41.54;155278.97;5037758;28;20120;-86
2023/05/07 08:16:32;;;;;;;14.35;9.43;;;;;;;29.36;41.96;155343.50;5038038;28;20087;-86
2023/05/07 08:18:59;;;;;;;15.77;10.00;;;;;;;28.87;43.37;155222.03;5017406;28;20041;-86
2023/05/07 08:21:25;;;;;;;12.55;9.20;;;;;;;28.44;44.37;155113.28;5023386;28;20025;-86
2023/05/07 08:23:51;;;;;;;17.90;10.50;;;;;;;27.28;46.13;154823.75;5020945;28;20030;-87
2023/05/07 08:26:17;;;;;;;14.05;9.70;;;;;;;27.88;45.79;154972.88;5017164;28;20479;-86
2023/05/07 08:28:43;;;;;;;14.48;9.45;;;;;;;28.85;43.12;155216.97;5028947;28;20041;-85
2023/05/07 08:31:08;;;;;;;13.60;9.70;;;;;;;27.81;45.69;154955.22;5026600;28;20525;-85
2023/05/07 08:33:38;;;;;;;18.83;8.60;;;;;;;29.50;42.52;155380.16;5025655;28;20171;-84
2023/05/07 08:36:04;;;;;;;84.38;12.60;;;;;;;28.90;42.24;155229.59;5021821;28;20769;-85
2023/05/07 08:38:30;;;;;;;11.73;8.73;;;;;;;28.36;43.14;155093.03;5023777;28;20057;-87
2023/05/07 08:40:56;;;;;;;14.90;9.05;;;;;;;29.56;40.58;155395.38;5003339;28;20072;-86
2023/05/07 08:43:26;;;;;;;13.77;9.43;;;;;;;29.37;41.22;155346.00;4996988;28;20097;-84
2023/05/07 08:45:55;;;;;;;17.60;8.65;;;;;;;29.63;40.59;155411.81;5013548;28;20077;-87
2023/05/07 08:48:25;;;;;;;15.63;8.95;;;;;;;29.32;40.35;155333.38;5013010;28;20037;-85
2023/05/07 08:50:58;;;;;;;11.60;8.57;;;;;;;28.81;41.60;155206.84;5013171;28;20030;-83
2023/05/07 08:53:24;;;;;;;12.02;6.68;;;;;;;29.46;41.10;155370.06;5014398;28;20034;-83
2023/05/07 08:55:51;;;;;;;10.40;7.82;;;;;;;28.95;41.68;155242.28;5012817;28;20192;-85
2023/05/07 08:58:16;;;;;;;10.75;6.72;;;;;;;29.17;42.66;155296.63;5012857;28;20366;-83
2023/05/07 09:00:43;;;;;;;13.32;7.88;;;;;;;29.86;40.79;155470.06;5012979;28;20026;-83
2023/05/07 09:03:12;;;;;;;12.90;8.02;;;;;;;30.10;39.93;155529.50;5013365;28;20129;-84
2023/05/07 09:05:38;;;;;;;9.02;6.45;;;;;;;31.11;38.51;155784.00;5013157;28;20033;-83
2023/05/07 09:08:07;;;;;;;11.60;7.63;;;;;;;30.89;39.41;155728.22;5013227;28;20057;-84
2023/05/07 09:10:33;;;;;;;13.70;8.43;;;;;;;31.64;37.22;155915.75;5012790;28;20092;-85
2023/05/07 09:12:59;;;;;;;14.35;8.85;;;;;;;30.83;37.89;155711.78;5013892;28;20574;-83
2023/05/07 09:15:26;;;;;;;9.77;7.00;;;;;;;31.18;37.32;155801.75;5014077;28;20042;-86
2023/05/07 09:17:53;;;;;;;12.27;6.97;;;;;;;30.70;38.15;155681.41;5013304;28;20124;-83
2023/05/07 09:20:18;;;;;;;9.02;6.93;;;;;;;30.41;38.96;155606.75;5018930;28;20073;-84
2023/05/07 09:22:44;;;;;;;12.43;7.28;;;;;;;31.31;36.68;155832.13;5023060;28;20037;-85
2023/05/07 09:25:15;;;;;;;9.60;6.65;;;;;;;31.56;36.14;155895.47;5028411;28;20045;-89
2023/05/07 09:27:42;;;;;;;10.18;7.13;;;;;;;30.91;37.09;155733.31;5030522;28;20029;-84
2023/05/07 09:30:08;;;;;;;8.10;6.20;;;;;;;30.65;36.41;155667.50;5032808;28;20037;-87
2023/05/07 09:32:37;;;;;;;8.48;6.00;;;;;;;29.90;37.37;155480.16;5032638;28;20045;-85
2023/05/07 09:35:04;;;;;;;15.68;5.90;;;;;;;30.66;36.59;155671.28;5032195;28;20033;-84
2023/05/07 09:37:31;;;;;;;10.48;5.95;;;;;;;30.06;37.15;155519.41;5032205;28;20052;-84
2023/05/07 09:39:57;;;;;;;8.50;6.50;;;;;;;30.29;36.72;155576.34;5032573;28;20057;-85
2023/05/07 09:42:26;;;;;;;15.48;7.45;;;;;;;29.81;39.52;155456.06;5032290;28;20034;-86
2023/05/07 09:44:54;;;;;;;10.85;8.25;;;;;;;28.74;41.82;155189.16;5033534;28;20389;-85
2023/05/07 09:47:24;;;;;;;12.70;8.65;;;;;;;28.50;42.46;155129.72;5033889;28;20043;-85
2023/05/07 09:49:58;;;;;;;11.48;7.65;;;;;;;28.45;43.31;155115.78;5033258;28;20060;-87
2023/05/07 09:52:33;;;;;;;13.20;7.90;;;;;;;29.04;41.42;155265.03;5016689;28;20050;-86
2023/05/07 09:55:00;;;;;;;10.13;7.40;;;;;;;29.00;41.80;155253.66;5031935;28;20080;-87
2023/05/07 09:57:29;;;;;;;10.70;8.73;;;;;;;29.36;40.14;155343.50;5031847;28;20037;-90
2023/05/07 10:00:02;;;;;;;12.13;7.77;;;;;;;28.83;41.50;155211.94;5032353;28;20045;-88
2023/05/07 10:02:35;;;;;;;9.25;6.65;;;;;;;29.39;40.43;155351.09;5032123;28;20350;-87
2023/05/07 10:05:01;;;;;;;13.23;7.57;;;;;;;29.68;39.88;155425.72;5015994;28;20128;-89
2023/05/07 10:07:30;;;;;;;11.25;7.63;;;;;;;29.59;40.07;155401.69;5032529;28;20125;-88
2023/05/07 10:10:05;;;;;;;11.35;7.80;;;;;;;29.06;41.65;155270.09;5033436;28;20386;-89
2023/05/07 10:12:38;;;;;;;9.30;6.50;;;;;;;29.43;42.21;155361.22;5034730;28;20041;-89
2023/05/07 10:15:11;;;;;;;15.23;8.02;;;;;;;29.47;41.86;155371.31;5033898;28;20136;-87
2023/05/07 10:17:39;;;;;;;11.38;7.70;;;;;;;29.54;41.69;155390.28;5017456;28;20052;-87
2023/05/07 10:20:07;;;;;;;12.20;9.10;;;;;;;30.02;40.27;155510.53;5016221;28;20045;-87
2023/05/07 10:22:39;;;;;;;11.73;8.10;;;;;;;30.63;39.20;155662.41;5033567;28;20049;-86
2023/05/07 10:25:29;;;;;;;18.20;8.85;;;;;;;30.30;39.46;155580.09;5028560;28;20564;-86
2023/05/07 10:28:00;;;;;;;30.73;18.17;;;;;;;30.04;39.68;155514.31;5015801;28;20069;-87
2023/05/07 10:30:39;;;;;;;18.88;11.63;;;;;;;29.79;40.92;155452.31;5030043;28;20310;-82
2023/05/07 10:33:10;;;;;;;13.32;9.38;;;;;;;30.61;38.60;155658.66;5023035;28;20037;-86
2023/05/07 10:35:45;;;;;;;15.48;9.10;;;;;;;30.48;39.36;155624.47;5012471;28;20054;-89
2023/05/07 10:38:12;;;;;;;16.13;10.15;;;;;;;30.57;39.23;155648.50;5012815;28;20045;-88
2023/05/07 10:40:40;;;;;;;16.60;9.13;;;;;;;30.44;39.16;155614.34;5022382;28;20121;-88
2023/05/07 10:43:07;;;;;;;10.93;8.65;;;;;;;30.19;40.09;155553.53;5018426;28;20044;-88
2023/05/07 10:45:39;;;;;;;;;;;;;;;29.84;41.77;155463.69;5028233;28;20035;-85
2023/05/07 10:48:24;;;;;;;12.57;7.78;;;;;;;29.49;42.97;155376.38;5035597;28;20413;-86
2023/05/07 10:51:21;;;;;;;14.10;8.35;;;;;;;29.55;42.93;155392.84;5020663;28;20403;-86
2023/05/07 10:53:48;;;;;;;10.45;7.57;;;;;;;29.97;43.37;155496.59;5024132;28;20033;-87
2023/05/07 10:56:24;;;;;;;10.45;7.45;;;;;;;29.89;41.46;155477.66;5015302;28;20029;-87
2023/05/07 10:59:20;;;;;;;16.70;9.07;;;;;;;28.76;43.51;155194.22;5026471;28;20140;-85
2023/05/07 11:01:53;;;;;;;14.27;9.32;;;;;;;27.81;46.86;154956.47;5019069;28;20037;-88
2023/05/07 11:04:41;;;;;;;13.18;7.90;;;;;;;28.32;47.11;155084.19;5016996;28;20046;-83
2023/05/07 11:07:27;;;;;;;12.02;7.57;;;;;;;28.56;45.83;155144.88;5030084;28;20037;-87
2023/05/07 11:10:00;;;;;;;12.18;8.00;;;;;;;28.69;45.32;155176.53;5037278;28;20033;-85
2023/05/07 11:12:52;;;;;;;9.70;7.43;;;;;;;28.45;45.56;155115.78;5008928;28;20033;-85
2023/05/07 11:15:37;;;;;;;;;;;;;;;28.26;46.77;155067.75;5007379;28;20042;-87
2023/05/07 11:18:06;;;;;;;14.38;7.03;;;;;;;28.65;45.60;155167.63;5018320;28;20326;-85